This is the latest recevied weather packets stored in our database for station/object OE5MMP-13. If no packets are shown the sender has not sent any weather packets the latest 10 day(s).
| Time | Temp. | Humidity | Pressure | Rain* | Wind** | Luminosity | Snow |
|---|---|---|---|---|---|---|---|
| 1788327193 | 14.44° C | 80% | 1021.9 hPa | 0 mm | - | 116 W/m² | - |
| 1788326593 | 14.44° C | 79% | 1021.9 hPa | 0 mm | - | 87 W/m² | - |
| 1788325992 | 13.89° C | 79% | 1022 hPa | 0 mm | - | 59 W/m² | - |
| 1788325392 | 13.89° C | 78% | 1022 hPa | 0 mm | - | 34 W/m² | - |
| 1788324793 | 13.89° C | 79% | 1022 hPa | 0 mm | - | 21 W/m² | - |
| 1788324193 | 13.33° C | 79% | 1021.9 hPa | 0 mm | - | 11 W/m² | - |
| 1788323593 | 13.89° C | 78% | 1021.9 hPa | 0 mm | - | 5 W/m² | - |
| 1788322992 | 13.33° C | 79% | 1021.8 hPa | 0 mm | - | 0 W/m² | - |
| 1788322393 | 13.89° C | 79% | 1021.8 hPa | 0 mm | - | 0 W/m² | - |
| 1788321792 | 13.89° C | 78% | 1021.9 hPa | 0 mm | - | 0 W/m² | - |
| 1788321192 | 13.89° C | 78% | 1021.9 hPa | 0 mm | - | 0 W/m² | - |
| 1788320592 | 13.89° C | 79% | 1021.8 hPa | 0 mm | - | 0 W/m² | - |
| 1788319992 | 13.89° C | 77% | 1022 hPa | 0 mm | - | 0 W/m² | - |
| 1788319392 | 13.89° C | 79% | 1022 hPa | 0 mm | - | 0 W/m² | - |
| 1788318792 | 13.89° C | 78% | 1022 hPa | 0 mm | - | 0 W/m² | - |
| 1788318193 | 14.44° C | 77% | 1022.2 hPa | 0 mm | - | 0 W/m² | - |
| 1788317592 | 13.89° C | 79% | 1022.1 hPa | 0 mm | - | 0 W/m² | - |
| 1788316994 | 14.44° C | 78% | 1022.2 hPa | 0 mm | - | 0 W/m² | - |
| 1788316392 | 14.44° C | 77% | 1022.2 hPa | 0 mm | - | 0 W/m² | - |
| 1788315792 | 14.44° C | 75% | 1022.1 hPa | 0 mm | - | 0 W/m² | - |
| 1788315192 | 16.11° C | 72% | 1022.3 hPa | 0 mm | - | 0 W/m² | - |
| 1788314592 | 16.67° C | 69% | 1022.3 hPa | 0 mm | - | 0 W/m² | - |
| 1788313992 | 16.67° C | 67% | 1022.2 hPa | 0 mm | - | 0 W/m² | - |
| 1788313392 | 16.67° C | 67% | 1022.1 hPa | 0 mm | - | 0 W/m² | - |
| 1788312792 | 16.67° C | 67% | 1022.2 hPa | 0 mm | - | 0 W/m² | - |
* Rain latest hour (hover to see other rain measurements)
** Current wind speed in m/s (hover to see current wind gust speed)